Time;durP1;ratioP1;P1;durP2;ratioP2;P2;SDS_P1;SDS_P2;PMS_P1;PMS_P2;Temp;Humidity;BMP_temperature;BMP_pressure;BME280_temperature;BME280_humidity;BME280_pressure;Samples;Min_cycle;Max_cycle;Signal;HPM_P1;HPM_P2
2021/03/23 00:00:53;;;;;;;9.60;6.60;;;0.80;1.40;;;1.38;99.76;96040.72;644008;221;24499;-74
2021/03/23 00:03:25;;;;;;;8.17;6.90;;;0.80;1.40;;;1.26;100.00;96037.38;638952;221;30980;-74
2021/03/23 00:05:54;;;;;;;8.40;7.13;;;0.70;1.40;;;1.17;100.00;96038.13;640188;220;27738;-74
2021/03/23 00:08:28;;;;;;;11.45;8.43;;;0.60;1.40;;;1.14;100.00;96039.44;635865;221;31757;-74
2021/03/23 00:10:57;;;;;;;7.77;6.97;;;0.60;1.40;;;1.04;100.00;96042.12;639751;221;23463;-74
2021/03/23 00:13:26;;;;;;;10.87;7.60;;;0.50;1.40;;;0.97;100.00;96045.39;638899;221;24519;-74
2021/03/23 00:15:55;;;;;;;10.55;8.10;;;0.40;1.40;;;0.99;100.00;96047.69;634751;221;31918;-74
2021/03/23 00:18:24;;;;;;;14.00;8.67;;;0.30;1.40;;;1.04;100.00;96050.45;639169;221;24910;-74
2021/03/23 00:20:53;;;;;;;10.93;7.33;;;0.20;1.40;;;1.01;100.00;96049.77;642123;221;24517;-74
2021/03/23 00:23:22;;;;;;;9.57;6.67;;;0.10;1.40;;;1.01;100.00;96052.07;648990;219;25583;-74
2021/03/23 00:25:51;;;;;;;10.60;7.10;;;0.20;1.40;;;1.07;100.00;96056.12;662969;211;24498;-74
2021/03/23 00:28:22;;;;;;;14.93;8.70;;;0.30;1.40;;;1.04;100.00;96051.98;657667;215;24501;-74
2021/03/23 00:30:49;;;;;;;11.00;7.90;;;0.20;1.40;;;0.98;100.00;96055.46;649223;215;24488;-74
2021/03/23 00:35:50;;;;;;;14.68;9.60;;;0.20;1.40;;;0.97;100.00;96060.98;649586;212;31573;-74
2021/03/23 00:40:54;;;;;;;12.43;8.90;;;0.20;1.40;;;1.10;100.00;96060.09;647896;212;31602;-74
2021/03/23 00:43:23;;;;;;;11.00;9.43;;;0.20;1.40;;;1.08;100.00;96055.70;641093;221;30273;-72
2021/03/23 00:45:52;;;;;;;10.57;8.53;;;0.20;1.40;;;1.12;100.00;96052.48;641618;221;24516;-73
2021/03/23 00:48:21;;;;;;;12.37;8.33;;;0.20;1.40;;;1.08;100.00;96051.50;640894;221;24553;-73
2021/03/23 00:50:50;;;;;;;12.93;8.00;;;0.20;1.40;;;1.01;100.00;96047.87;639506;221;24501;-73
2021/03/23 00:53:19;;;;;;;12.35;9.77;;;0.30;1.40;;;1.06;100.00;96050.60;644449;218;31837;-74
2021/03/23 00:55:48;;;;;;;11.77;9.87;;;0.40;1.40;;;1.00;100.00;96051.36;649382;220;23735;-73
2021/03/23 00:58:17;;;;;;;9.67;7.60;;;0.50;1.40;;;1.05;100.00;96046.56;669451;211;24437;-73
2021/03/23 01:00:46;;;;;;;11.40;8.37;;;0.60;1.40;;;1.11;100.00;96038.27;668688;211;29727;-73
2021/03/23 01:03:15;;;;;;;13.87;9.17;;;0.60;1.40;;;1.17;100.00;96043.52;666450;211;24658;-74
2021/03/23 01:05:47;;;;;;;13.90;9.63;;;0.70;1.40;;;1.18;100.00;96041.09;667768;211;24413;-74
2021/03/23 01:08:13;;;;;;;13.17;8.50;;;0.60;1.40;;;1.16;100.00;96038.37;670679;211;26515;-74
2021/03/23 01:10:43;;;;;;;9.37;7.90;;;0.60;1.40;;;1.19;100.00;96042.77;669146;211;24403;-73
2021/03/23 01:13:12;;;;;;;16.97;8.83;;;0.60;1.40;;;1.24;100.00;96036.59;669373;211;24412;-74
2021/03/23 01:15:41;;;;;;;12.90;9.55;;;0.50;1.40;;;1.27;100.00;96036.97;662527;211;31562;-73
2021/03/23 01:18:10;;;;;;;12.93;9.97;;;0.50;1.40;;;1.27;100.00;96036.80;671435;211;23385;-74
2021/03/23 01:23:13;;;;;;;17.42;11.55;;;0.70;1.40;;;1.26;100.00;96038.39;644776;216;31609;-75
2021/03/23 01:25:42;;;;;;;13.10;9.43;;;0.70;1.40;;;1.27;100.00;96041.12;634390;221;23513;-75
2021/03/23 01:28:11;;;;;;;11.13;8.77;;;0.70;1.40;;;1.31;100.00;96037.16;644985;221;24550;-75
2021/03/23 01:30:40;;;;;;;11.60;8.77;;;0.70;1.40;;;1.38;100.00;96039.92;656363;215;24496;-75
2021/03/23 01:35:51;;;;;;;14.07;9.88;;;0.80;1.40;;;1.36;100.00;96040.11;646604;216;31690;-74
2021/03/23 01:38:20;;;;;;;9.83;8.10;;;0.80;1.40;;;1.45;100.00;96033.47;642465;221;23484;-75
2021/03/23 01:40:49;;;;;;;17.13;8.97;;;0.80;1.40;;;1.42;100.00;96032.86;640653;221;24528;-75
2021/03/23 01:43:19;;;;;;;11.30;8.40;;;0.80;1.40;;;1.44;100.00;96028.73;638966;221;26737;-75
2021/03/23 01:45:48;;;;;;;13.00;9.10;;;0.80;1.40;;;1.45;100.00;96035.39;641944;221;24613;-75
2021/03/23 01:48:21;;;;;;;10.30;7.80;;;0.80;1.40;;;1.40;100.00;96032.13;672227;211;27614;-75
2021/03/23 01:50:52;;;;;;;11.10;8.17;;;0.90;1.40;;;1.43;100.00;96027.38;669157;211;24446;-75
2021/03/23 01:53:27;;;;;;;13.70;8.13;;;0.80;1.40;;;1.49;100.00;96027.97;667193;211;25520;-74
2021/03/23 01:55:56;;;;;;;11.20;7.70;;;0.80;1.40;;;1.51;100.00;96029.83;669581;211;24414;-74
2021/03/23 01:58:25;;;;;;;13.03;7.83;;;0.80;1.40;;;1.53;100.00;96028.31;672186;211;24467;-74
2021/03/23 02:00:54;;;;;;;11.13;8.80;;;0.70;1.40;;;1.47;100.00;96025.13;668340;211;24415;-75
2021/03/23 02:03:23;;;;;;;11.13;9.00;;;0.70;1.40;;;1.42;100.00;96024.74;670491;211;24472;-75
2021/03/23 02:05:56;;;;;;;13.80;8.40;;;0.70;1.40;;;1.34;100.00;96020.83;668326;211;24405;-75
2021/03/23 02:08:25;;;;;;;12.53;10.10;;;0.70;1.40;;;1.35;100.00;96019.66;670104;211;26516;-75
2021/03/23 02:10:54;;;;;;;14.30;9.20;;;0.60;1.40;;;1.35;100.00;96015.49;666012;211;24451;-75
2021/03/23 02:13:23;;;;;;;10.60;8.40;;;0.60;1.40;;;1.42;100.00;96015.23;668795;211;24472;-75
2021/03/23 02:15:52;;;;;;;12.37;8.73;;;0.50;1.40;;;1.33;100.00;96015.72;667836;211;24422;-74
2021/03/23 02:18:22;;;;;;;11.37;8.83;;;0.50;1.40;;;1.20;100.00;96009.42;667356;211;24412;-75
2021/03/23 02:20:59;;;;;;;12.67;9.23;;;0.50;1.40;;;1.14;100.00;96008.63;672895;211;24451;-75
2021/03/23 02:23:28;;;;;;;16.03;10.90;;;0.50;1.40;;;1.12;100.00;96010.19;663155;211;31479;-74
2021/03/23 02:25:57;;;;;;;12.73;9.47;;;0.40;1.40;;;1.06;100.00;96014.46;638916;220;24791;-75
2021/03/23 02:28:26;;;;;;;13.07;10.30;;;0.40;1.40;;;1.01;100.00;96009.53;662626;212;24436;-75
2021/03/23 02:30:55;;;;;;;13.87;9.97;;;0.40;1.40;;;0.99;100.00;96002.11;663019;214;24419;-75
2021/03/23 02:35:51;;;;;;;16.55;11.20;;;0.40;1.40;;;0.89;100.00;96000.84;645456;212;31604;-75
2021/03/23 02:38:20;;;;;;;11.17;9.87;;;0.40;1.40;;;0.86;100.00;96005.98;643146;221;23593;-75
2021/03/23 02:40:49;;;;;;;16.40;9.17;;;0.30;1.40;;;0.81;100.00;96001.00;644522;221;24557;-74
2021/03/23 02:43:18;;;;;;;13.37;9.70;;;0.20;1.40;;;0.75;100.00;96000.16;641350;220;24529;-74
2021/03/23 02:45:47;;;;;;;15.73;9.47;;;0.10;1.40;;;0.70;100.00;96004.98;653581;216;25554;-75
2021/03/23 02:48:16;;;;;;;15.43;10.53;;;0.10;1.40;;;0.66;100.00;95997.98;671940;211;24450;-74
2021/03/23 02:50:45;;;;;;;13.50;10.13;;;0.10;1.40;;;0.60;100.00;95999.66;668611;211;24439;-75
2021/03/23 02:53:15;;;;;;;15.70;11.00;;;0.00;1.40;;;0.58;100.00;96000.40;667243;211;31444;-75
2021/03/23 02:55:44;;;;;;;14.20;11.13;;;0.00;1.40;;;0.51;100.00;96003.52;668804;211;23400;-75
2021/03/23 02:58:13;;;;;;;15.70;9.70;;;-0.10;1.40;;;0.44;100.00;96001.58;668718;211;24417;-75
2021/03/23 03:00:43;;;;;;;12.20;9.70;;;-0.10;1.40;;;0.40;100.00;96006.70;668206;211;24881;-74
2021/03/23 03:03:12;;;;;;;12.20;9.23;;;-0.10;1.40;;;0.40;100.00;96007.86;670430;211;24405;-74
2021/03/23 03:05:41;;;;;;;14.07;10.10;;;-0.20;1.40;;;0.37;100.00;96007.81;670605;211;25432;-75
2021/03/23 03:08:10;;;;;;;15.00;10.20;;;-0.30;1.40;;;0.36;100.00;96009.91;669487;211;24413;-74
2021/03/23 03:10:39;;;;;;;12.80;10.17;;;-0.30;1.40;;;0.31;100.00;96009.19;670992;211;24455;-75
2021/03/23 03:13:08;;;;;;;11.87;9.73;;;-0.30;1.40;;;0.31;100.00;96008.70;670023;211;24458;-74
2021/03/23 03:15:37;;;;;;;16.37;12.00;;;-0.30;1.40;;;0.30;100.00;96014.51;667452;211;24459;-74
2021/03/23 03:18:06;;;;;;;21.20;10.60;;;-0.30;1.40;;;0.27;100.00;96013.73;669444;211;24520;-74
2021/03/23 03:20:35;;;;;;;17.77;12.70;;;-0.30;1.40;;;0.30;100.00;96017.87;663054;211;31490;-75
2021/03/23 03:23:04;;;;;;;16.70;10.67;;;-0.20;1.40;;;0.27;100.00;96022.30;669373;211;23450;-75
2021/03/23 03:25:33;;;;;;;14.83;10.23;;;-0.30;1.40;;;0.23;100.00;96020.72;663468;211;24847;-74
2021/03/23 03:28:02;;;;;;;19.95;13.07;;;-0.30;1.40;;;0.25;100.00;96022.36;652573;216;31751;-74
2021/03/23 03:30:32;;;;;;;15.67;10.23;;;-0.20;1.40;;;0.20;100.00;96024.68;654034;216;23437;-74
2021/03/23 03:33:01;;;;;;;16.83;11.50;;;-0.20;1.40;;;0.14;100.00;96026.62;636690;220;31800;-74
2021/03/23 03:35:51;;;;;;;14.73;12.30;;;-0.40;1.40;;;0.08;100.00;96027.70;648862;216;31748;-74
2021/03/23 03:38:21;;;;;;;14.47;11.07;;;-0.50;1.40;;;-0.08;100.00;96024.28;640944;221;25634;-74
2021/03/23 03:40:54;;;;;;;12.63;10.03;;;-0.50;1.40;;;-0.05;100.00;96027.30;642791;220;24534;-74
2021/03/23 03:43:23;;;;;;;14.07;10.07;;;-0.70;1.40;;;-0.06;100.00;96031.76;656598;215;24471;-75
2021/03/23 03:45:52;;;;;;;17.95;12.25;;;-0.70;1.40;;;-0.06;100.00;96038.25;641235;219;31756;-74
2021/03/23 03:48:21;;;;;;;17.97;11.67;;;-0.70;1.40;;;-0.10;100.00;96034.89;667040;211;23442;-74
2021/03/23 03:50:50;;;;;;;11.87;9.70;;;-0.70;1.40;;;-0.07;100.00;96040.98;668163;211;26778;-74
2021/03/23 03:53:19;;;;;;;16.80;11.47;;;-0.60;1.40;;;-0.10;100.00;96040.63;669537;211;24407;-74
2021/03/23 03:55:48;;;;;;;14.53;10.03;;;-0.60;1.40;;;-0.12;100.00;96040.48;670849;211;24438;-74
2021/03/23 03:58:17;;;;;;;18.12;13.65;;;-0.60;1.40;;;-0.15;100.00;96038.83;661973;211;31496;-74
2021/03/23 04:00:46;;;;;;;15.43;11.70;;;-0.70;1.40;;;-0.11;100.00;96037.30;670734;211;23448;-74
2021/03/23 04:03:16;;;;;;;16.53;11.73;;;-0.60;1.40;;;-0.11;100.00;96036.06;669464;211;25806;-75
2021/03/23 04:05:45;;;;;;;13.83;10.77;;;-0.60;1.40;;;-0.16;100.00;96031.04;670553;211;24456;-74
2021/03/23 04:08:14;;;;;;;15.83;11.53;;;-0.60;1.40;;;-0.19;100.00;96033.84;668778;211;24417;-74
2021/03/23 04:12:50;;;;;;;17.75;13.40;;;-0.60;1.40;;;-0.17;100.00;96029.39;622678;226;32122;-74
2021/03/23 04:15:20;;;;;;;20.27;12.00;;;-0.70;1.40;;;-0.16;100.00;96029.86;617081;230;24663;-75
2021/03/23 04:17:49;;;;;;;12.90;9.87;;;-0.70;1.40;;;-0.21;100.00;96027.81;615445;229;25630;-74
2021/03/23 04:20:18;;;;;;;19.00;12.60;;;-0.70;1.40;;;-0.28;100.00;96033.38;610937;230;32190;-72
2021/03/23 04:22:47;;;;;;;15.43;11.33;;;-0.80;1.40;;;-0.32;100.00;96036.68;617583;229;23528;-73
2021/03/23 04:25:17;;;;;;;22.33;11.73;;;-0.90;1.40;;;-0.36;100.00;96034.69;613906;230;31135;-72
2021/03/23 04:30:21;;;;;;;19.77;13.27;;;-1.00;1.40;;;-0.35;100.00;96036.56;646161;216;31602;-74
2021/03/23 04:32:50;;;;;;;26.97;11.73;;;-0.90;1.40;;;-0.41;100.00;96040.67;641079;221;23475;-74
2021/03/23 04:35:54;;;;;;;22.33;15.40;;;-1.00;1.40;;;-0.35;100.00;96045.06;646712;212;32206;-75
2021/03/23 04:38:24;;;;;;;26.77;13.30;;;-1.10;1.40;;;-0.30;100.00;96041.30;641205;221;23496;-75
2021/03/23 04:40:53;;;;;;;23.40;12.60;;;-0.90;1.40;;;-0.39;100.00;96044.73;642170;221;24489;-75
2021/03/23 04:43:23;;;;;;;22.98;15.75;;;-1.10;1.40;;;-0.23;100.00;96042.67;639410;220;31975;-74
2021/03/23 04:45:53;;;;;;;21.50;12.97;;;-0.80;1.40;;;-0.23;100.00;96047.80;643292;220;23474;-74
2021/03/23 04:48:21;;;;;;;22.65;16.83;;;-0.90;1.40;;;-0.15;100.00;96046.63;638973;220;31841;-75
2021/03/23 04:50:50;;;;;;;23.73;14.70;;;-0.80;1.40;;;-0.23;100.00;96047.57;667492;211;23435;-74
2021/03/23 04:53:25;;;;;;;25.80;13.30;;;-0.80;1.40;;;-0.14;100.00;96045.37;670946;211;24570;-74
2021/03/23 04:55:54;;;;;;;24.60;15.07;;;-0.80;1.40;;;-0.10;100.00;96050.23;647735;220;26696;-74
2021/03/23 04:58:23;;;;;;;17.53;13.23;;;-0.60;1.40;;;-0.13;100.00;96052.80;647866;220;29754;-75
2021/03/23 05:00:52;;;;;;;22.60;14.30;;;-0.70;1.40;;;-0.05;100.00;96055.38;671805;211;24418;-75
2021/03/23 05:03:21;;;;;;;21.77;14.90;;;-0.60;1.40;;;-0.06;100.00;96059.04;661979;211;31423;-74
2021/03/23 05:05:53;;;;;;;19.83;13.60;;;-0.50;1.40;;;-0.02;100.00;96054.57;670533;211;23413;-74
2021/03/23 05:08:22;;;;;;;24.43;13.77;;;-0.50;1.40;;;-0.01;100.00;96056.25;668788;211;24427;-75
2021/03/23 05:10:51;;;;;;;20.50;15.27;;;-0.50;1.40;;;0.01;100.00;96067.09;662795;211;31391;-74
2021/03/23 05:13:20;;;;;;;17.70;12.97;;;-0.50;1.40;;;0.01;100.00;96069.75;671237;211;23397;-74
2021/03/23 05:15:49;;;;;;;19.53;12.30;;;-0.50;1.40;;;0.08;100.00;96074.11;656407;216;25692;-75
2021/03/23 05:18:18;;;;;;;19.80;11.93;;;-0.30;1.40;;;0.17;100.00;96077.09;658210;216;26183;-74
2021/03/23 05:20:47;;;;;;;20.37;13.27;;;-0.20;1.40;;;0.23;100.00;96083.30;666432;211;24431;-74
2021/03/23 05:23:17;;;;;;;17.30;12.40;;;-0.20;1.40;;;0.23;100.00;96084.10;669444;211;24431;-74
2021/03/23 05:25:46;;;;;;;22.25;15.20;;;-0.20;1.40;;;0.29;100.00;96084.53;664393;211;31589;-74
2021/03/23 05:28:15;;;;;;;13.90;12.13;;;-0.20;1.40;;;0.36;100.00;96089.05;667829;211;23407;-74
2021/03/23 05:30:44;;;;;;;19.10;12.10;;;-0.20;1.40;;;0.39;100.00;96088.48;672452;211;24505;-75
2021/03/23 05:35:53;;;;;;;21.25;14.95;;;-0.10;1.40;;;0.52;100.00;96088.29;646263;212;31992;-75
2021/03/23 05:38:22;;;;;;;20.40;13.70;;;0.00;1.40;;;0.54;100.00;96091.44;642826;221;23604;-74
2021/03/23 05:40:53;;;;;;;20.85;14.40;;;0.00;1.40;;;0.66;100.00;96090.98;623016;221;42816;-75
2021/03/23 05:43:47;;;;;;;19.77;13.30;;;0.10;1.40;;;0.68;100.00;96092.97;639707;220;23472;-74
2021/03/23 05:49:27;;;;;;;20.10;13.60;;;0.20;1.40;;;0.78;100.00;96095.98;644700;212;31680;-74
2021/03/23 05:52:45;;;;;;;19.87;14.85;;;0.20;1.40;;;0.84;100.00;96092.94;634948;221;31792;-74
2021/03/23 05:55:34;;;;;;;20.08;14.65;;;0.30;1.40;;;1.03;100.00;96099.70;646766;212;31631;-75
2021/03/23 05:58:03;;;;;;;16.13;12.17;;;0.30;1.40;;;1.18;100.00;96097.33;643452;221;24628;-76
2021/03/23 06:00:32;;;;;;;19.43;12.63;;;0.40;1.40;;;1.39;100.00;96101.96;640838;220;28819;-75
2021/03/23 06:03:18;;;;;;;18.13;12.33;;;0.50;1.40;;;1.56;100.00;96102.41;655289;215;24485;-75
2021/03/23 06:05:53;;;;;;;19.40;13.60;;;0.70;1.40;;;1.49;100.00;96111.28;654192;215;24473;-75
2021/03/23 06:08:27;;;;;;;19.20;14.00;;;0.80;1.40;;;1.54;100.00;96115.92;669281;211;24438;-74
2021/03/23 06:11:33;;;;;;;23.23;12.87;;;0.90;1.40;;;1.61;100.00;96115.77;668183;211;27648;-75
2021/03/23 06:14:24;;;;;;;20.55;14.70;;;1.00;1.40;;;1.69;100.00;96119.89;622540;226;32199;-75
2021/03/23 06:17:02;;;;;;;19.37;13.30;;;1.10;1.40;;;1.77;100.00;96123.59;618190;230;23563;-74
2021/03/23 06:19:41;;;;;;;20.27;12.30;;;1.20;1.40;;;1.79;100.00;96123.00;619251;229;26702;-74
2021/03/23 06:22:46;;;;;;;18.93;13.47;;;1.20;1.40;;;1.77;100.00;96119.90;614219;230;24648;-75
2021/03/23 06:25:35;;;;;;;18.48;14.20;;;1.20;1.40;;;1.74;100.00;96123.48;640054;216;31830;-75
2021/03/23 06:28:21;;;;;;;20.83;16.00;;;1.20;1.40;;;1.78;100.00;96125.92;622292;225;32731;-74
2021/03/23 06:30:54;;;;;;;24.33;14.90;;;1.10;1.40;;;1.86;100.00;96132.28;631757;225;24597;-75
2021/03/23 06:35:55;;;;;;;21.48;16.00;;;1.20;1.40;;;2.12;100.00;96128.77;647325;216;31600;-75
2021/03/23 06:38:25;;;;;;;28.70;16.67;;;1.20;1.40;;;1.99;100.00;96128.41;640991;221;23471;-74
2021/03/23 06:41:14;;;;;;;18.93;14.30;;;1.30;1.40;;;2.03;100.00;96129.61;645673;220;24531;-74
2021/03/23 06:43:45;;;;;;;26.30;15.90;;;1.40;1.40;;;2.22;100.00;96132.36;668441;211;24482;-74
2021/03/23 06:46:42;;;;;;;19.50;15.20;;;1.50;1.40;;;2.31;100.00;96135.52;670445;211;24487;-75
2021/03/23 06:49:32;;;;;;;20.83;14.00;;;1.60;1.40;;;2.51;100.00;96134.28;652500;218;24489;-74
2021/03/23 06:52:22;;;;;;;23.58;17.35;;;1.70;1.40;;;2.62;100.00;96137.00;644837;216;31649;-75
2021/03/23 06:55:24;;;;;;;21.03;14.30;;;1.80;1.40;;;2.86;100.00;96147.52;640554;221;23496;-75
2021/03/23 06:57:53;;;;;;;22.65;16.60;;;2.00;1.40;;;3.08;98.84;96143.41;635942;220;31826;-75
2021/03/23 07:00:24;;;;;;;29.10;15.40;;;2.20;1.40;;;3.05;97.77;96142.12;639838;221;25783;-75
2021/03/23 07:02:55;;;;;;;16.60;13.43;;;2.20;1.40;;;3.06;97.35;96146.41;639540;221;24608;-75
2021/03/23 07:05:32;;;;;;;23.80;15.63;;;2.30;1.40;;;2.98;97.54;96151.15;638710;221;24558;-75
2021/03/23 07:08:22;;;;;;;15.47;11.97;;;2.30;1.40;;;3.08;97.35;96154.91;654121;216;24497;-74
2021/03/23 07:11:02;;;;;;;21.95;14.85;;;2.40;1.40;;;3.19;97.40;96158.30;649235;212;31770;-74
2021/03/23 07:13:33;;;;;;;20.63;14.63;;;2.60;1.40;;;3.12;96.37;96157.41;640478;220;25641;-75
2021/03/23 07:16:26;;;;;;;19.43;14.40;;;2.60;1.40;;;3.17;96.06;96155.06;640219;221;24661;-75
2021/03/23 07:18:55;;;;;;;22.10;13.90;;;2.50;1.40;;;3.10;96.37;96157.53;657392;216;24508;-74
2021/03/23 07:24:10;;;;;;;18.98;14.00;;;2.70;1.40;;;3.39;94.92;96165.28;645108;216;31616;-75
2021/03/23 07:26:40;;;;;;;16.77;13.10;;;2.80;1.40;;;3.46;94.09;96160.69;656196;215;28789;-75
2021/03/23 07:29:22;;;;;;;20.27;12.67;;;3.00;1.40;;;3.54;93.85;96159.72;668964;211;29784;-75
2021/03/23 07:32:09;;;;;;;17.20;10.77;;;3.00;1.40;;;3.66;92.93;96159.81;668343;211;29739;-74
2021/03/23 07:35:51;;;;;;;19.67;13.60;;;3.20;1.40;;;3.78;92.09;96158.31;646380;216;31642;-75
2021/03/23 07:38:40;;;;;;;18.35;14.50;;;3.20;1.40;;;3.89;90.94;96164.66;638849;220;31800;-74
2021/03/23 07:41:20;;;;;;;19.00;12.50;;;3.20;1.40;;;3.75;90.89;96163.48;642855;220;24060;-77
2021/03/23 07:43:54;;;;;;;16.77;12.47;;;3.10;1.40;;;3.88;90.52;96166.47;646126;220;24548;-77
2021/03/23 07:46:26;;;;;;;19.00;14.07;;;3.20;1.40;;;3.85;90.63;96164.16;667482;211;26788;-77
2021/03/23 07:49:06;;;;;;;19.43;13.67;;;3.10;1.40;;;3.79;91.37;96165.89;670413;211;24430;-77
2021/03/23 07:51:40;;;;;;;17.13;12.50;;;3.10;1.40;;;3.91;92.26;96166.22;671413;211;24460;-76
2021/03/23 07:54:29;;;;;;;15.07;11.80;;;3.30;1.40;;;4.07;91.60;96160.50;670113;211;24484;-77
2021/03/23 07:57:31;;;;;;;24.30;16.75;;;3.40;1.40;;;4.15;90.27;96156.84;648136;216;31671;-77
2021/03/23 08:00:15;;;;;;;18.93;12.47;;;3.40;1.40;;;4.08;89.70;96158.17;643327;219;23472;-76
2021/03/23 08:03:14;;;;;;;16.67;13.30;;;3.40;1.40;;;4.33;89.17;96155.30;668861;211;26621;-77
2021/03/23 08:06:25;;;;;;;22.40;15.20;;;3.80;1.40;;;4.83;89.08;96154.20;621746;226;31965;-77
2021/03/23 08:09:21;;;;;;;26.70;13.47;;;4.30;1.40;;;5.07;86.04;96154.44;620283;230;23570;-76
2021/03/23 08:12:25;;;;;;;16.73;13.05;;;4.70;1.40;;;5.04;84.64;96155.11;647808;212;31662;-77
2021/03/23 08:15:10;;;;;;;15.95;12.30;;;4.30;1.40;;;4.92;85.08;96163.59;646026;212;31987;-76
2021/03/23 08:18:08;;;;;;;16.00;11.40;;;4.40;1.40;;;5.36;83.65;96163.09;640958;220;23491;-76
2021/03/23 08:21:07;;;;;;;17.35;13.80;;;4.90;1.40;;;5.79;82.77;96150.50;646459;216;31631;-77
2021/03/23 08:23:58;;;;;;;18.20;13.88;;;5.20;1.40;;;5.65;80.67;96159.77;615829;224;42676;-76
2021/03/23 08:26:46;;;;;;;14.80;11.60;;;5.10;1.40;;;6.02;80.95;96156.66;605847;228;23648;-76
2021/03/23 08:29:32;;;;;;;20.05;14.80;;;5.20;1.40;;;5.57;79.62;96160.97;645009;212;31621;-76
2021/03/23 08:36:04;;;;;;;17.17;14.05;;;5.30;1.40;;;6.24;78.39;96168.73;645706;216;32271;-76
2021/03/23 08:38:56;;;;;;;18.07;12.57;;;5.50;1.40;;;6.30;77.36;96168.93;641863;219;23485;-77
2021/03/23 08:41:54;;;;;;;18.30;14.18;;;5.60;1.40;;;6.92;77.15;96168.77;647174;212;32033;-76
2021/03/23 08:44:27;;;;;;;18.03;12.23;;;5.90;1.40;;;6.56;73.44;96175.82;643323;219;23580;-76
2021/03/23 08:46:56;;;;;;;20.03;11.90;;;5.90;1.40;;;6.65;74.56;96182.60;670803;211;24436;-76
2021/03/23 08:49:25;;;;;;;13.80;10.70;;;5.80;1.40;;;6.79;73.21;96179.69;655966;216;24478;-77
2021/03/23 08:51:54;;;;;;;16.53;11.37;;;6.10;1.40;;;6.50;74.34;96181.84;654682;215;28720;-77
2021/03/23 08:54:41;;;;;;;13.53;11.00;;;5.80;1.40;;;6.69;72.44;96184.62;667048;211;24410;-77
2021/03/23 08:57:10;;;;;;;17.33;11.40;;;6.10;1.40;;;6.83;72.63;96186.38;669987;211;27106;-76
2021/03/23 08:59:40;;;;;;;15.30;10.93;;;6.10;1.40;;;7.05;72.00;96184.94;668363;211;24439;-77
2021/03/23 09:05:07;;;;;;;16.90;11.70;;;6.90;1.40;;;7.83;68.82;96182.66;619825;222;42600;-76
2021/03/23 09:07:36;;;;;;;15.30;11.80;;;6.90;1.40;;;7.97;66.01;96182.78;610045;229;32139;-76
2021/03/23 09:10:11;;;;;;;12.90;10.63;;;7.40;1.40;;;8.75;65.46;96185.66;627734;225;23560;-76
2021/03/23 09:12:41;;;;;;;15.67;10.80;;;8.30;1.40;;;8.88;62.25;96188.59;626446;224;24982;-76
2021/03/23 09:15:25;;;;;;;13.00;10.53;;;8.40;1.40;;;9.25;59.72;96179.36;616199;229;25700;-77
2021/03/23 09:18:28;;;;;;;13.07;10.70;;;9.10;1.40;;;9.79;58.47;96173.81;619587;230;24638;-76
2021/03/23 09:20:58;;;;;;;13.70;8.77;;;9.00;1.40;;;9.43;59.20;96184.05;621417;230;25692;-75
2021/03/23 09:23:35;;;;;;;12.17;9.47;;;9.30;1.40;;;11.31;56.44;96175.32;620444;229;24587;-75
2021/03/23 09:26:06;;;;;;;12.30;8.93;;;12.20;1.40;;;11.77;53.03;96182.59;621917;225;24555;-75
2021/03/23 09:28:51;;;;;;;10.80;8.50;;;11.30;1.40;;;13.62;50.13;96171.50;604550;233;32298;-76
2021/03/23 09:36:22;;;;;;;8.90;8.00;;;14.10;1.40;;;15.80;39.68;96171.45;647281;216;31567;-77
2021/03/23 09:39:11;;;;;;;9.05;6.80;;;14.30;1.40;;;15.19;38.72;96168.88;622333;222;32545;-75
2021/03/23 09:41:53;;;;;;;8.32;7.15;;;14.00;1.40;;;15.87;37.73;96166.89;649002;216;31534;-74
2021/03/23 09:44:39;;;;;;;11.13;7.90;;;13.20;1.40;;;13.72;42.50;96168.17;648307;219;26823;-75
2021/03/23 09:49:46;;;;;;;8.13;7.10;;;8.00;1.40;;;9.49;49.67;96169.22;646721;216;31600;-74
2021/03/23 09:52:19;;;;;;;9.10;7.80;;;7.30;1.40;;;9.52;52.11;96166.55;643124;221;24045;-74
2021/03/23 09:54:53;;;;;;;6.33;5.67;;;7.40;1.40;;;8.83;50.88;96173.41;640703;221;24512;-74
2021/03/23 09:57:23;;;;;;;7.35;5.65;;;7.40;1.40;;;8.64;50.94;96172.30;634018;220;31824;-77
2021/03/23 09:59:52;;;;;;;8.60;6.20;;;6.90;1.40;;;7.91;52.34;96174.09;650227;215;31852;-75
2021/03/23 10:02:23;;;;;;;7.65;5.80;;;6.60;1.40;;;7.98;53.02;96169.60;664858;211;42552;-76
2021/03/23 10:04:52;;;;;;;8.38;5.87;;;6.80;1.40;;;7.53;52.61;96175.02;649566;215;31582;-75
2021/03/23 10:12:40;;;;;;;33.63;8.60;;;6.90;1.40;;;7.84;53.60;96174.35;648446;212;31861;-76
2021/03/23 10:15:32;;;;;;;17.77;6.73;;;6.60;1.40;;;7.90;53.92;96174.14;643164;221;23517;-76
2021/03/23 10:18:20;;;;;;;7.73;5.20;;;6.70;1.40;;;8.07;52.44;96170.82;647210;216;31731;-76
2021/03/23 10:20:59;;;;;;;7.13;4.63;;;6.50;1.40;;;7.91;52.35;96173.92;642110;220;24548;-76
2021/03/23 10:23:28;;;;;;;9.70;5.30;;;6.50;1.40;;;7.72;54.38;96170.22;642543;220;24543;-77
2021/03/23 10:25:57;;;;;;;12.63;7.95;;;6.40;1.40;;;7.11;58.55;96172.27;635309;221;31741;-76
2021/03/23 10:28:28;;;;;;;11.47;10.23;;;5.90;1.40;;;6.76;62.92;96172.28;639780;221;23496;-76
2021/03/23 10:35:51;;;;;;;15.60;12.63;;;5.70;1.40;;;7.01;66.29;96177.16;646129;212;31636;-76
2021/03/23 10:38:40;;;;;;;16.20;11.77;;;5.70;1.40;;;6.70;68.21;96171.29;641159;220;23478;-76
2021/03/23 10:41:32;;;;;;;19.10;13.25;;;5.60;1.40;;;6.66;68.13;96172.31;637663;220;31896;-76
2021/03/23 10:44:11;;;;;;;15.43;10.03;;;5.50;1.40;;;6.66;68.49;96170.75;651124;219;23468;-73
2021/03/23 10:46:40;;;;;;;11.50;9.83;;;5.60;1.40;;;6.86;67.54;96168.50;654322;215;24483;-73
2021/03/23 10:49:19;;;;;;;15.73;11.63;;;5.60;1.40;;;7.04;67.79;96169.20;666305;211;24467;-74
2021/03/23 10:51:48;;;;;;;15.70;11.07;;;5.80;1.40;;;7.09;69.16;96168.11;669503;211;27753;-74
2021/03/23 10:54:21;;;;;;;13.63;9.93;;;5.90;1.40;;;7.41;68.60;96170.81;668114;211;24482;-74
2021/03/23 10:56:53;;;;;;;16.30;12.18;;;6.20;1.40;;;7.65;67.50;96173.66;664264;211;31491;-76
2021/03/23 10:59:27;;;;;;;12.77;9.50;;;6.30;1.40;;;7.53;66.04;96173.30;665279;211;23392;-76
2021/03/23 11:02:02;;;;;;;13.30;10.10;;;6.30;1.40;;;7.49;65.40;96173.94;670047;211;24413;-77
2021/03/23 11:04:31;;;;;;;9.47;7.83;;;6.20;1.40;;;7.50;63.86;96169.51;668053;211;29766;-76
2021/03/23 11:07:15;;;;;;;9.77;7.53;;;6.40;1.40;;;7.65;64.01;96163.36;669347;211;24514;-76
2021/03/23 11:09:44;;;;;;;8.43;6.50;;;6.70;1.40;;;8.31;60.45;96162.08;668795;211;24417;-77
2021/03/23 11:12:13;;;;;;;5.63;3.60;;;7.00;1.40;;;8.73;53.47;96164.33;668704;211;24407;-76
2021/03/23 11:14:42;;;;;;;4.80;4.30;;;7.50;1.40;;;8.46;53.35;96161.24;667290;211;24438;-76
2021/03/23 11:17:13;;;;;;;8.67;5.17;;;7.10;1.40;;;9.32;52.66;96155.22;656202;211;24464;-76
2021/03/23 11:19:47;;;;;;;7.22;6.05;;;7.60;1.40;;;9.78;52.19;96155.62;651681;215;31534;-76
2021/03/23 11:22:12;;;;;;;11.23;7.30;;;7.80;1.40;;;9.13;54.70;96156.42;652549;216;23665;-76
2021/03/23 11:24:41;;;;;;;7.63;6.83;;;7.80;1.40;;;9.41;52.13;96150.23;645864;220;24510;-77
2021/03/23 11:27:10;;;;;;;8.53;7.20;;;7.90;1.40;;;9.48;52.40;96149.89;670994;211;24457;-76
2021/03/23 11:29:39;;;;;;;7.83;7.13;;;8.30;1.40;;;10.31;52.72;96146.13;655126;216;24473;-76
2021/03/23 11:32:08;;;;;;;9.37;6.37;;;8.90;1.40;;;11.50;50.73;96141.63;655971;216;25141;-78
2021/03/23 11:35:51;;;;;;;7.65;6.30;;;10.30;1.40;;;12.16;48.13;96142.13;617707;226;31906;-74
2021/03/23 11:38:20;;;;;;;6.53;5.80;;;9.90;1.40;;;11.61;49.51;96147.00;616189;230;25208;-74
2021/03/23 11:40:49;;;;;;;8.27;5.87;;;9.20;1.40;;;10.79;47.90;96144.31;612611;229;32054;-73
2021/03/23 11:43:19;;;;;;;5.87;5.27;;;8.20;1.40;;;11.05;47.82;96141.70;608289;230;24721;-73
2021/03/23 11:45:50;;;;;;;5.57;4.07;;;8.60;1.40;;;9.91;47.39;96140.12;617069;230;24634;-73
2021/03/23 11:48:18;;;;;;;6.67;4.17;;;7.80;1.40;;;9.50;48.98;96142.84;611096;229;32127;-76